createdAt,value
2022-12-05T00:00:35.114Z,5
2022-12-05T00:01:35.261Z,5.1
2022-12-05T00:02:35.206Z,5.1
2022-12-05T00:03:35.122Z,5.1
2022-12-05T00:04:35.248Z,5.1
2022-12-05T00:05:35.115Z,5
2022-12-05T00:06:35.128Z,5.1
2022-12-05T00:07:35.191Z,5
2022-12-05T00:08:35.110Z,5
2022-12-05T00:09:35.138Z,5
2022-12-05T00:10:35.148Z,5.1
2022-12-05T00:11:35.119Z,5.1
2022-12-05T00:12:35.114Z,5.1
2022-12-05T00:13:35.121Z,5.1
2022-12-05T00:14:35.123Z,5.1
2022-12-05T00:15:35.118Z,5
2022-12-05T00:16:35.212Z,5.1
2022-12-05T00:17:35.128Z,5
2022-12-05T00:18:35.107Z,5.1
2022-12-05T00:19:35.149Z,5.1
2022-12-05T00:20:35.130Z,5.1
2022-12-05T00:21:35.121Z,5
2022-12-05T00:22:35.103Z,5
2022-12-05T00:23:35.140Z,5
2022-12-05T00:24:35.116Z,5.1
2022-12-05T00:25:35.112Z,5.1
2022-12-05T00:26:35.126Z,5.1
2022-12-05T00:27:35.142Z,5.1
2022-12-05T00:28:35.182Z,5.1
2022-12-05T00:29:35.114Z,5.1
2022-12-05T00:30:35.142Z,5.1
2022-12-05T00:31:35.237Z,5.1
2022-12-05T00:32:35.143Z,5.1
2022-12-05T00:33:35.111Z,5.1
2022-12-05T00:34:35.124Z,5.1
2022-12-05T00:35:35.156Z,5.1
2022-12-05T00:36:35.115Z,5.1
2022-12-05T00:37:35.109Z,5.1
2022-12-05T00:38:35.116Z,5.1
2022-12-05T00:39:35.124Z,5.1
2022-12-05T00:40:35.126Z,5.1
2022-12-05T00:41:35.124Z,5.1
2022-12-05T00:42:35.116Z,5.1
2022-12-05T00:43:35.109Z,5.1
2022-12-05T00:44:35.121Z,5.1
2022-12-05T00:45:35.172Z,5.1
2022-12-05T00:46:35.238Z,5.1
2022-12-05T00:47:35.145Z,5.1
2022-12-05T00:48:35.120Z,5.1
2022-12-05T00:49:35.135Z,5.1
2022-12-05T00:50:35.108Z,5.1
2022-12-05T00:51:35.110Z,5.1
2022-12-05T00:52:35.160Z,5.1
2022-12-05T00:53:35.142Z,5.1
2022-12-05T00:54:35.123Z,5.1
2022-12-05T00:55:35.128Z,5.1
2022-12-05T00:56:35.174Z,5.1
2022-12-05T00:57:35.095Z,5.1
2022-12-05T00:58:35.108Z,5.1
2022-12-05T00:59:35.128Z,5.1
2022-12-05T01:00:35.115Z,5.1
2022-12-05T01:01:35.176Z,5.1
2022-12-05T01:02:35.127Z,5.1
2022-12-05T01:03:35.208Z,5.1
2022-12-05T01:04:35.125Z,5.1
2022-12-05T01:05:35.106Z,5.1
2022-12-05T01:06:35.121Z,5.1
2022-12-05T01:07:35.170Z,5.1
2022-12-05T01:08:35.111Z,5.1
2022-12-05T01:09:35.118Z,5.1
2022-12-05T01:10:35.121Z,5.1
2022-12-05T01:11:40.726Z,5.1
2022-12-05T01:12:35.120Z,5.1
2022-12-05T01:13:35.117Z,5.1
2022-12-05T01:14:35.111Z,5.1
2022-12-05T01:15:35.119Z,5.1
2022-12-05T01:16:35.192Z,5.1
2022-12-05T01:17:35.114Z,5.1
2022-12-05T01:18:35.150Z,5.1
2022-12-05T01:19:35.202Z,5.1
2022-12-05T01:20:35.104Z,5.1
2022-12-05T01:21:35.114Z,5.1
2022-12-05T01:22:35.121Z,5.1
2022-12-05T01:23:35.107Z,5.1
2022-12-05T01:24:35.125Z,5.1
2022-12-05T01:25:35.129Z,5.1
2022-12-05T01:26:35.102Z,5.1
2022-12-05T01:27:35.089Z,5.1
2022-12-05T01:28:35.199Z,5.1
2022-12-05T01:29:35.106Z,5.1
2022-12-05T01:30:35.163Z,5.1
2022-12-05T01:31:35.210Z,5.1
2022-12-05T01:32:35.129Z,5.1
2022-12-05T01:33:35.172Z,5.1
2022-12-05T01:34:35.116Z,5.1
2022-12-05T01:35:35.111Z,5.1
2022-12-05T01:36:35.134Z,5.1
2022-12-05T01:37:35.101Z,5.1
2022-12-05T01:38:35.115Z,5.1
2022-12-05T01:39:35.116Z,5.1
2022-12-05T01:40:35.135Z,5.1
2022-12-05T01:41:35.120Z,5.1
2022-12-05T01:42:35.110Z,5.1
2022-12-05T01:43:35.132Z,5.1
2022-12-05T01:44:35.119Z,5.1
2022-12-05T01:45:35.189Z,5.1
2022-12-05T01:46:35.105Z,5.1
2022-12-05T01:47:35.166Z,5.1
2022-12-05T01:48:35.113Z,5.1
2022-12-05T01:49:35.125Z,5.1
2022-12-05T01:50:35.106Z,5.1
2022-12-05T01:51:35.101Z,5.1
2022-12-05T01:52:35.115Z,5.1
2022-12-05T01:53:35.116Z,5
2022-12-05T01:54:35.183Z,5
2022-12-05T01:55:35.126Z,5
2022-12-05T01:56:35.142Z,5
2022-12-05T01:57:35.115Z,5.1
2022-12-05T01:58:35.097Z,5
2022-12-05T01:59:35.102Z,5
2022-12-05T02:00:35.108Z,5
2022-12-05T02:01:35.280Z,5
2022-12-05T02:02:35.203Z,5
2022-12-05T02:03:35.097Z,5
2022-12-05T02:04:35.113Z,5
2022-12-05T02:05:35.102Z,5
2022-12-05T02:06:35.096Z,5
2022-12-05T02:07:35.216Z,5
2022-12-05T02:08:35.108Z,5
2022-12-05T02:09:35.135Z,5
2022-12-05T02:10:35.131Z,5
2022-12-05T02:11:35.117Z,5
2022-12-05T02:12:35.107Z,4.9
2022-12-05T02:13:35.098Z,4.9
2022-12-05T02:14:35.122Z,4.9
2022-12-05T02:15:35.123Z,4.9
2022-12-05T02:16:35.174Z,4.9
2022-12-05T02:17:35.106Z,4.9
2022-12-05T02:18:35.107Z,4.9
2022-12-05T02:19:35.136Z,4.9
2022-12-05T02:20:35.143Z,4.9
2022-12-05T02:21:35.098Z,4.9
2022-12-05T02:22:35.094Z,4.9
2022-12-05T02:23:35.109Z,4.9
2022-12-05T02:24:35.102Z,4.9
2022-12-05T02:25:35.106Z,4.9
2022-12-05T02:26:35.104Z,4.9
2022-12-05T02:27:35.105Z,4.9
2022-12-05T02:28:35.126Z,4.9
2022-12-05T02:29:35.165Z,4.8
2022-12-05T02:30:35.104Z,4.9
2022-12-05T02:31:35.317Z,4.9
2022-12-05T02:32:35.099Z,4.8
2022-12-05T02:33:35.109Z,4.9
2022-12-05T02:34:35.122Z,4.8
2022-12-05T02:35:35.103Z,4.8
2022-12-05T02:36:35.148Z,4.8
2022-12-05T02:37:35.111Z,4.8
2022-12-05T02:38:35.094Z,4.8
2022-12-05T02:39:35.123Z,4.8
2022-12-05T02:40:35.176Z,4.7
2022-12-05T02:41:35.107Z,4.8
2022-12-05T02:42:35.104Z,4.8
2022-12-05T02:43:35.101Z,4.8
2022-12-05T02:44:35.104Z,4.8
2022-12-05T02:45:35.208Z,4.8
2022-12-05T02:46:35.111Z,4.7
2022-12-05T02:47:35.092Z,4.8
2022-12-05T02:48:35.104Z,4.7
2022-12-05T02:49:35.126Z,4.7
2022-12-05T02:50:35.112Z,4.7
2022-12-05T02:51:35.121Z,4.7
2022-12-05T02:52:35.098Z,4.7
2022-12-05T02:53:35.099Z,4.7
2022-12-05T02:54:35.090Z,4.7
2022-12-05T02:55:35.129Z,4.7
2022-12-05T02:56:35.142Z,4.7
2022-12-05T02:57:35.110Z,4.7
2022-12-05T02:58:35.099Z,4.7
2022-12-05T02:59:35.093Z,4.7
2022-12-05T03:00:35.102Z,4.7
2022-12-05T03:01:35.154Z,4.7
2022-12-05T03:02:35.097Z,4.7
2022-12-05T03:03:35.094Z,4.7
2022-12-05T03:04:35.233Z,4.7
2022-12-05T03:05:35.099Z,4.7
2022-12-05T03:06:35.122Z,4.7
2022-12-05T03:07:35.132Z,4.7
2022-12-05T03:08:35.097Z,4.7
2022-12-05T03:09:35.105Z,4.7
2022-12-05T03:10:35.156Z,4.7
2022-12-05T03:11:35.090Z,4.7
2022-12-05T03:12:35.097Z,4.7
2022-12-05T03:13:35.104Z,4.7
2022-12-05T03:14:35.109Z,4.7
2022-12-05T03:15:35.089Z,4.7
2022-12-05T03:16:35.151Z,4.7
2022-12-05T03:17:35.091Z,4.7
2022-12-05T03:18:35.098Z,4.7
2022-12-05T03:19:35.112Z,4.7
2022-12-05T03:20:35.105Z,4.7
2022-12-05T03:21:35.104Z,4.7
2022-12-05T03:22:35.131Z,4.6
2022-12-05T03:23:35.094Z,4.6
2022-12-05T03:24:35.113Z,4.6
2022-12-05T03:25:35.178Z,4.6
2022-12-05T03:26:35.103Z,4.6
2022-12-05T03:27:35.123Z,4.6
2022-12-05T03:28:35.090Z,4.7
2022-12-05T03:29:35.106Z,4.7
2022-12-05T03:30:35.150Z,4.6
2022-12-05T03:31:35.089Z,4.7
2022-12-05T03:32:35.099Z,4.6
2022-12-05T03:33:35.106Z,4.6
2022-12-05T03:34:35.115Z,4.6
2022-12-05T03:35:35.121Z,4.6
2022-12-05T03:36:35.086Z,4.6
2022-12-05T03:37:35.102Z,4.6
2022-12-05T03:38:35.106Z,4.6
2022-12-05T03:39:35.126Z,4.6
2022-12-05T03:40:35.119Z,4.6
2022-12-05T03:41:35.127Z,4.6
2022-12-05T03:42:35.106Z,4.6
2022-12-05T03:43:35.086Z,4.6
2022-12-05T03:44:35.099Z,4.6
2022-12-05T03:45:35.164Z,4.6
2022-12-05T03:46:35.263Z,4.6
2022-12-05T03:47:35.097Z,4.6
2022-12-05T03:48:35.126Z,4.6
2022-12-05T03:49:35.119Z,4.6
2022-12-05T03:50:35.099Z,4.6
2022-12-05T03:51:35.103Z,4.6
2022-12-05T03:52:45.941Z,4.6
2022-12-05T03:53:35.122Z,4.6
2022-12-05T03:54:35.109Z,4.6
2022-12-05T03:55:35.137Z,4.6
2022-12-05T03:56:35.120Z,4.6
2022-12-05T03:57:35.096Z,4.6
2022-12-05T03:58:35.099Z,4.6
2022-12-05T03:59:35.090Z,4.6
2022-12-05T04:00:35.110Z,4.6
2022-12-05T04:01:35.173Z,4.6
2022-12-05T04:02:35.136Z,4.6
2022-12-05T04:03:35.112Z,4.6
2022-12-05T04:04:35.115Z,4.6
2022-12-05T04:05:35.122Z,4.6
2022-12-05T04:06:35.116Z,4.6
2022-12-05T04:07:35.160Z,4.6
2022-12-05T04:08:35.099Z,4.6
2022-12-05T04:09:35.118Z,4.6
2022-12-05T04:10:35.087Z,4.6
2022-12-05T04:11:35.114Z,4.6
2022-12-05T04:12:35.095Z,4.6
2022-12-05T04:13:35.081Z,4.6
2022-12-05T04:14:35.109Z,4.6
2022-12-05T04:15:35.111Z,4.6
2022-12-05T04:16:35.091Z,4.6
2022-12-05T04:17:35.088Z,4.6
2022-12-05T04:18:35.111Z,4.6
2022-12-05T04:19:35.093Z,4.6
2022-12-05T04:20:35.086Z,4.6
2022-12-05T04:21:35.219Z,4.6
2022-12-05T04:22:35.090Z,4.6
2022-12-05T04:23:35.090Z,4.6
2022-12-05T04:24:35.121Z,4.6
2022-12-05T04:25:35.119Z,4.6
2022-12-05T04:26:35.113Z,4.6
2022-12-05T04:27:35.073Z,4.6
2022-12-05T04:28:35.079Z,4.6
2022-12-05T04:29:35.138Z,4.6
2022-12-05T04:30:35.139Z,4.6
2022-12-05T04:31:35.168Z,4.6
2022-12-05T04:32:35.096Z,4.6
2022-12-05T04:33:35.091Z,4.6
2022-12-05T04:34:35.083Z,4.6
2022-12-05T04:35:35.105Z,4.6
2022-12-05T04:36:35.086Z,4.6
2022-12-05T04:37:35.082Z,4.6
2022-12-05T04:38:35.084Z,4.6
2022-12-05T04:39:35.081Z,4.6
2022-12-05T04:40:35.104Z,4.6
2022-12-05T04:41:35.078Z,4.6
2022-12-05T04:42:35.085Z,4.6
2022-12-05T04:43:35.098Z,4.6
2022-12-05T04:44:35.111Z,4.6
2022-12-05T04:45:35.094Z,4.6
2022-12-05T04:46:35.232Z,4.6
2022-12-05T04:47:35.091Z,4.6
2022-12-05T04:48:35.092Z,4.6
2022-12-05T04:49:35.095Z,4.6
2022-12-05T04:50:35.080Z,4.6
2022-12-05T04:51:35.156Z,4.6
2022-12-05T04:52:35.079Z,4.6
2022-12-05T04:53:35.098Z,4.6
2022-12-05T04:54:35.095Z,4.6
2022-12-05T04:55:35.131Z,4.6
2022-12-05T04:56:35.086Z,4.6
2022-12-05T04:57:35.091Z,4.6
2022-12-05T04:58:35.143Z,4.6
2022-12-05T04:59:35.080Z,4.6
2022-12-05T05:00:35.093Z,4.6
2022-12-05T05:01:35.198Z,4.6
2022-12-05T05:02:35.129Z,4.6
2022-12-05T05:03:35.079Z,4.6
2022-12-05T05:04:35.104Z,4.6
2022-12-05T05:05:35.085Z,4.6
2022-12-05T05:06:35.098Z,4.6
2022-12-05T05:07:35.124Z,4.6
2022-12-05T05:08:35.122Z,4.6
2022-12-05T05:09:35.095Z,4.6
2022-12-05T05:10:35.092Z,4.6
2022-12-05T05:11:35.077Z,4.6
2022-12-05T05:12:35.079Z,4.6
2022-12-05T05:13:35.093Z,4.6
2022-12-05T05:14:35.084Z,4.6
2022-12-05T05:15:35.113Z,4.6
2022-12-05T05:16:35.202Z,4.6
2022-12-05T05:17:35.082Z,4.6
2022-12-05T05:18:35.087Z,4.6
2022-12-05T05:19:35.101Z,4.6
2022-12-05T05:20:35.084Z,4.6
2022-12-05T05:21:35.072Z,4.6
2022-12-05T05:22:35.083Z,4.6
2022-12-05T05:23:35.106Z,4.6
2022-12-05T05:24:35.077Z,4.6
2022-12-05T05:25:35.101Z,4.6
2022-12-05T05:26:35.151Z,4.6
2022-12-05T05:27:35.081Z,4.6
2022-12-05T05:28:35.058Z,4.6
2022-12-05T05:29:35.081Z,4.6
2022-12-05T05:30:35.068Z,4.6
2022-12-05T05:31:35.100Z,4.6
2022-12-05T05:32:35.056Z,4.6
2022-12-05T05:33:35.143Z,4.6
2022-12-05T05:34:35.078Z,4.6
2022-12-05T05:35:35.066Z,4.6
2022-12-05T05:36:35.105Z,4.6
2022-12-05T05:37:35.063Z,4.6
2022-12-05T05:38:35.081Z,4.6
2022-12-05T05:39:35.095Z,4.6
2022-12-05T05:40:35.063Z,4.6
2022-12-05T05:41:35.097Z,4.6
2022-12-05T05:42:35.075Z,4.6
2022-12-05T05:43:35.078Z,4.6
2022-12-05T05:44:35.071Z,4.6
2022-12-05T05:45:35.064Z,4.6
2022-12-05T05:46:35.181Z,4.6
2022-12-05T05:47:35.084Z,4.6
2022-12-05T05:48:35.077Z,4.6
2022-12-05T05:49:35.089Z,4.6
2022-12-05T05:50:35.082Z,4.6
2022-12-05T05:51:35.083Z,4.6
2022-12-05T05:52:35.059Z,4.6
2022-12-05T05:53:35.055Z,4.6
2022-12-05T05:54:35.132Z,4.6
2022-12-05T05:55:35.096Z,4.6
2022-12-05T05:56:35.105Z,4.6
2022-12-05T05:57:35.099Z,4.6
2022-12-05T05:58:35.087Z,4.6
2022-12-05T05:59:35.055Z,4.6
2022-12-05T06:00:35.101Z,4.6
2022-12-05T06:01:35.118Z,4.6
2022-12-05T06:02:35.249Z,4.6
2022-12-05T06:03:35.272Z,4.6
2022-12-05T06:04:35.091Z,4.6
2022-12-05T06:05:35.078Z,4.6
2022-12-05T06:06:35.090Z,4.6
2022-12-05T06:07:35.124Z,4.6
2022-12-05T06:08:35.067Z,4.6
2022-12-05T06:09:35.056Z,4.6
2022-12-05T06:10:35.098Z,4.6
2022-12-05T06:11:35.079Z,4.6
2022-12-05T06:12:35.062Z,4.6
2022-12-05T06:13:35.108Z,4.6
2022-12-05T06:14:35.078Z,4.6
2022-12-05T06:15:35.080Z,4.6
2022-12-05T06:16:35.099Z,4.6
2022-12-05T06:17:35.111Z,4.6
2022-12-05T06:18:35.067Z,4.6
2022-12-05T06:20:35.049Z,4.6
2022-12-05T06:21:35.063Z,4.6
2022-12-05T06:22:35.097Z,4.6
2022-12-05T06:23:35.077Z,4.6
2022-12-05T06:24:35.080Z,4.6
2022-12-05T06:25:35.076Z,4.6
2022-12-05T06:26:35.074Z,4.6
2022-12-05T06:27:35.058Z,4.6
2022-12-05T06:28:35.088Z,4.6
2022-12-05T06:29:35.072Z,4.6
2022-12-05T06:30:35.076Z,4.6
2022-12-05T06:31:35.129Z,4.6
2022-12-05T06:32:35.069Z,4.7
2022-12-05T06:33:35.071Z,4.6
2022-12-05T06:34:35.068Z,4.6
2022-12-05T06:35:35.068Z,4.6
2022-12-05T06:36:35.095Z,4.6
2022-12-05T06:37:35.059Z,4.6
2022-12-05T06:38:39.042Z,4.6
2022-12-05T06:39:35.080Z,4.6
2022-12-05T06:40:35.067Z,4.6
2022-12-05T06:41:35.078Z,4.6
2022-12-05T06:42:35.077Z,4.6
2022-12-05T06:43:35.065Z,4.6
2022-12-05T06:44:35.066Z,4.6
2022-12-05T06:45:35.246Z,4.6
2022-12-05T06:46:35.072Z,4.6
2022-12-05T06:47:35.083Z,4.6
2022-12-05T06:48:35.087Z,4.6
2022-12-05T06:49:38.098Z,4.6
2022-12-05T06:50:35.081Z,4.6
2022-12-05T06:51:35.076Z,4.6
2022-12-05T06:52:35.057Z,4.6
2022-12-05T06:53:35.073Z,4.6
2022-12-05T06:54:35.071Z,4.6
2022-12-05T06:55:35.073Z,4.6
2022-12-05T06:56:35.054Z,4.6
2022-12-05T06:57:35.060Z,4.6
2022-12-05T06:58:35.100Z,4.6
2022-12-05T06:59:35.171Z,4.6
2022-12-05T07:00:35.051Z,4.7
2022-12-05T07:01:35.189Z,4.7
2022-12-05T07:02:35.124Z,4.7
2022-12-05T07:03:35.070Z,4.7
2022-12-05T07:04:35.059Z,4.7
2022-12-05T07:05:35.061Z,4.7
2022-12-05T07:06:35.069Z,4.6
2022-12-05T07:07:35.122Z,4.7
2022-12-05T07:08:35.067Z,4.7
2022-12-05T07:09:35.091Z,4.7
2022-12-05T07:10:35.085Z,4.6
2022-12-05T07:11:35.066Z,4.7
2022-12-05T07:12:35.067Z,4.6
2022-12-05T07:13:35.066Z,4.6
2022-12-05T07:14:50.546Z,4.6
2022-12-05T07:15:35.058Z,4.6
2022-12-05T07:16:35.093Z,4.7
2022-12-05T07:17:35.062Z,4.6
2022-12-05T07:18:35.080Z,4.6
2022-12-05T07:19:35.101Z,4.6
2022-12-05T07:21:03.440Z,4.6
2022-12-05T07:21:35.052Z,4.6
2022-12-05T07:22:35.051Z,4.6
2022-12-05T07:23:35.068Z,4.6
2022-12-05T07:24:35.072Z,4.6
2022-12-05T07:25:35.097Z,4.6
2022-12-05T07:26:35.049Z,4.6
2022-12-05T07:27:35.060Z,4.6
2022-12-05T07:28:35.070Z,4.6
2022-12-05T07:29:35.056Z,4.6
2022-12-05T07:30:35.080Z,4.7
2022-12-05T07:31:35.108Z,4.6
2022-12-05T07:32:35.061Z,4.6
2022-12-05T07:33:35.057Z,4.6
2022-12-05T07:34:35.057Z,4.6
2022-12-05T07:35:35.085Z,4.6
2022-12-05T07:36:35.054Z,4.6
2022-12-05T07:37:35.052Z,4.6
2022-12-05T07:38:35.087Z,4.7
2022-12-05T07:39:35.099Z,4.7
2022-12-05T07:40:35.065Z,4.7
2022-12-05T07:41:35.063Z,4.7
2022-12-05T07:42:35.057Z,4.6
2022-12-05T07:43:35.045Z,4.6
2022-12-05T07:44:35.064Z,4.7
2022-12-05T07:45:35.139Z,4.7
2022-12-05T07:46:35.060Z,4.7
2022-12-05T07:47:35.189Z,4.7
2022-12-05T07:48:35.057Z,4.7
2022-12-05T07:49:35.066Z,4.7
2022-12-05T07:50:35.075Z,4.7
2022-12-05T07:51:35.068Z,4.7
2022-12-05T07:52:35.055Z,4.7
2022-12-05T07:53:35.065Z,4.7
2022-12-05T07:54:35.063Z,4.7
2022-12-05T07:55:35.138Z,4.7
2022-12-05T07:56:35.071Z,4.7
2022-12-05T07:57:35.051Z,4.7
2022-12-05T07:58:35.053Z,4.7
2022-12-05T07:59:35.062Z,4.7
2022-12-05T08:00:35.053Z,4.7
2022-12-05T08:01:35.192Z,4.7
2022-12-05T08:02:40.323Z,4.7
2022-12-05T08:03:35.042Z,4.7
2022-12-05T08:04:35.072Z,4.7
2022-12-05T08:05:35.060Z,4.7
2022-12-05T08:06:35.045Z,4.7
2022-12-05T08:07:35.085Z,4.7
2022-12-05T08:08:35.070Z,4.7
2022-12-05T08:09:35.071Z,4.7
2022-12-05T08:10:35.053Z,4.7
2022-12-05T08:11:35.075Z,4.7
2022-12-05T08:12:35.061Z,4.7
2022-12-05T08:13:35.054Z,4.7
2022-12-05T08:14:35.140Z,4.7
2022-12-05T08:15:35.067Z,4.7
2022-12-05T08:16:35.092Z,4.6
2022-12-05T08:17:35.095Z,4.7
2022-12-05T08:18:35.053Z,4.7
2022-12-05T08:19:35.256Z,4.7
2022-12-05T08:20:35.069Z,4.7
2022-12-05T08:21:35.064Z,4.7
2022-12-05T08:22:35.072Z,4.7
2022-12-05T08:23:35.150Z,4.7
2022-12-05T08:24:35.189Z,4.7
2022-12-05T08:25:35.072Z,4.7
2022-12-05T08:26:35.072Z,4.7
2022-12-05T08:27:35.049Z,4.7
2022-12-05T08:28:35.065Z,4.7
2022-12-05T08:29:35.249Z,4.7
2022-12-05T08:30:35.220Z,4.7
2022-12-05T08:31:35.062Z,4.7
2022-12-05T08:32:35.070Z,4.7
2022-12-05T08:33:35.057Z,4.7
2022-12-05T08:34:35.311Z,4.7
2022-12-05T08:35:35.076Z,4.7
2022-12-05T08:36:35.069Z,4.7
2022-12-05T08:37:35.061Z,4.7
2022-12-05T08:38:35.065Z,4.7
2022-12-05T08:39:38.741Z,4.7
2022-12-05T08:40:35.069Z,4.8
2022-12-05T08:41:35.055Z,4.8
2022-12-05T08:42:35.082Z,4.8
2022-12-05T08:43:35.064Z,4.8
2022-12-05T08:44:35.072Z,4.8
2022-12-05T08:45:35.052Z,4.8
2022-12-05T08:46:35.240Z,4.8
2022-12-05T08:47:35.085Z,4.8
2022-12-05T08:48:35.065Z,4.8
2022-12-05T08:49:35.053Z,4.8
2022-12-05T08:50:35.052Z,4.8
2022-12-05T08:51:35.040Z,4.8
2022-12-05T08:52:35.051Z,4.8
2022-12-05T08:53:39.554Z,4.8
2022-12-05T08:54:35.044Z,4.8
2022-12-05T08:55:35.082Z,4.8
2022-12-05T08:56:35.057Z,4.8
2022-12-05T08:57:35.042Z,4.8
2022-12-05T08:58:35.045Z,4.8
2022-12-05T08:59:35.047Z,4.8
2022-12-05T09:00:35.048Z,4.8
2022-12-05T09:01:35.127Z,4.8
2022-12-05T09:02:35.072Z,4.8
2022-12-05T09:03:35.138Z,4.8
2022-12-05T09:04:35.051Z,4.8
2022-12-05T09:05:35.055Z,4.8
2022-12-05T09:06:35.057Z,4.8
2022-12-05T09:07:35.045Z,4.8
2022-12-05T09:08:35.046Z,4.8
2022-12-05T09:09:35.058Z,4.8
2022-12-05T09:10:35.105Z,4.8
2022-12-05T09:11:35.047Z,4.8
2022-12-05T09:12:35.048Z,4.8
2022-12-05T09:13:35.051Z,4.8
2022-12-05T09:14:35.051Z,4.8
2022-12-05T09:15:35.068Z,4.9
2022-12-05T09:16:38.182Z,4.9
2022-12-05T09:17:35.058Z,4.8
2022-12-05T09:18:35.048Z,4.8
2022-12-05T09:19:35.061Z,4.8
2022-12-05T09:20:35.058Z,4.8
2022-12-05T09:21:35.054Z,4.9
2022-12-05T09:22:35.045Z,4.9
2022-12-05T09:23:35.035Z,4.8
2022-12-05T09:24:35.061Z,4.9
2022-12-05T09:25:35.057Z,4.9
2022-12-05T09:26:35.039Z,4.9
2022-12-05T09:27:35.044Z,4.9
2022-12-05T09:28:35.065Z,4.9
2022-12-05T09:29:35.039Z,4.9
2022-12-05T09:30:35.047Z,4.9
2022-12-05T09:31:35.170Z,4.9
2022-12-05T09:32:35.066Z,4.9
2022-12-05T09:33:35.045Z,4.9
2022-12-05T09:34:35.065Z,4.9
2022-12-05T09:35:35.056Z,4.9
2022-12-05T09:36:35.044Z,4.9
2022-12-05T09:37:39.837Z,4.9
2022-12-05T09:38:35.050Z,4.9
2022-12-05T09:39:35.055Z,4.9
2022-12-05T09:40:35.038Z,4.9
2022-12-05T09:41:35.057Z,4.9
2022-12-05T09:42:35.052Z,4.9
2022-12-05T09:43:35.052Z,4.9
2022-12-05T09:44:35.076Z,4.9
2022-12-05T09:45:35.057Z,4.9
2022-12-05T09:46:35.903Z,4.9
2022-12-05T09:47:35.041Z,4.9
2022-12-05T09:48:35.033Z,4.9
2022-12-05T09:49:35.065Z,4.9
2022-12-05T09:50:35.040Z,4.9
2022-12-05T09:51:35.039Z,4.9
2022-12-05T09:52:35.041Z,4.9
2022-12-05T09:53:35.059Z,4.9
2022-12-05T09:54:35.056Z,4.9
2022-12-05T09:55:35.055Z,4.9
2022-12-05T09:56:35.039Z,4.9
2022-12-05T09:57:35.040Z,4.9
2022-12-05T09:58:35.050Z,4.9
2022-12-05T09:59:35.046Z,4.9
2022-12-05T10:00:35.041Z,4.9
2022-12-05T10:01:35.141Z,5
2022-12-05T10:02:35.053Z,4.9
2022-12-05T10:03:35.054Z,4.9
2022-12-05T10:04:35.234Z,4.9
2022-12-05T10:05:35.068Z,4.9
2022-12-05T10:06:35.094Z,4.9
2022-12-05T10:07:35.101Z,4.9
2022-12-05T10:08:35.034Z,4.9
2022-12-05T10:09:35.054Z,4.9
2022-12-05T10:10:35.069Z,4.9
2022-12-05T10:11:35.074Z,4.9
2022-12-05T10:12:35.035Z,4.9
2022-12-05T10:13:35.087Z,4.9
2022-12-05T10:14:35.267Z,4.9
2022-12-05T10:15:35.389Z,4.9
2022-12-05T10:16:35.502Z,4.9
2022-12-05T10:17:35.049Z,4.9
2022-12-05T10:18:35.060Z,4.9
2022-12-05T10:19:35.062Z,4.9
2022-12-05T10:20:35.041Z,5
2022-12-05T10:21:35.050Z,5
2022-12-05T10:22:35.039Z,5
2022-12-05T10:23:56.683Z,5
2022-12-05T10:24:35.043Z,5
2022-12-05T10:25:35.039Z,5
2022-12-05T10:26:35.056Z,5
2022-12-05T10:27:39.751Z,5
2022-12-05T10:28:35.030Z,5
2022-12-05T10:29:35.035Z,5
2022-12-05T10:30:35.045Z,5
2022-12-05T10:31:35.119Z,5
2022-12-05T10:32:35.045Z,5
2022-12-05T10:33:35.041Z,5
2022-12-05T10:34:35.052Z,5
2022-12-05T10:35:35.038Z,5
2022-12-05T10:36:35.058Z,5
2022-12-05T10:37:35.049Z,5
2022-12-05T10:38:35.037Z,5
2022-12-05T10:39:35.042Z,5
2022-12-05T10:40:35.046Z,5
2022-12-05T10:41:35.071Z,5
2022-12-05T10:42:35.073Z,5
2022-12-05T10:43:35.038Z,5
2022-12-05T10:44:35.058Z,5
2022-12-05T10:45:35.029Z,5
2022-12-05T10:46:35.163Z,5
2022-12-05T10:47:35.109Z,5
2022-12-05T10:48:35.055Z,5
2022-12-05T10:49:35.058Z,5
2022-12-05T10:50:35.031Z,5
2022-12-05T10:51:37.692Z,5
2022-12-05T10:52:35.050Z,5
2022-12-05T10:53:35.048Z,5
2022-12-05T10:54:35.044Z,5
2022-12-05T10:55:35.072Z,5
2022-12-05T10:56:35.043Z,5
2022-12-05T10:57:35.042Z,5
2022-12-05T10:58:35.035Z,5
2022-12-05T10:59:35.032Z,5
2022-12-05T11:00:35.029Z,5
2022-12-05T11:01:35.157Z,5
2022-12-05T11:02:35.047Z,5
2022-12-05T11:03:35.042Z,5
2022-12-05T11:04:35.106Z,5
2022-12-05T11:05:35.094Z,5
2022-12-05T11:06:35.050Z,5
2022-12-05T11:07:35.177Z,5
2022-12-05T11:09:03.016Z,5
2022-12-05T11:09:35.042Z,5
2022-12-05T11:10:35.230Z,5
2022-12-05T11:11:35.042Z,5
2022-12-05T11:12:35.036Z,5
2022-12-05T11:13:35.069Z,5
2022-12-05T11:14:35.054Z,5
2022-12-05T11:15:35.031Z,5
2022-12-05T11:16:35.190Z,5.1
2022-12-05T11:17:35.036Z,5.1
2022-12-05T11:18:35.026Z,5.1
2022-12-05T11:19:35.048Z,5.1
2022-12-05T11:20:35.032Z,5.1
2022-12-05T11:21:35.027Z,5.1
2022-12-05T11:22:35.040Z,5.1
2022-12-05T11:23:35.032Z,5.1
2022-12-05T11:24:35.037Z,5.1
2022-12-05T11:25:35.032Z,5.1
2022-12-05T11:26:35.038Z,5.1
2022-12-05T11:27:35.036Z,5.1
2022-12-05T11:28:35.036Z,5.1
2022-12-05T11:29:35.031Z,5.1
2022-12-05T11:30:35.148Z,5.1
2022-12-05T11:31:35.063Z,5.1
2022-12-05T11:32:35.021Z,5.1
2022-12-05T11:33:35.046Z,5.1
2022-12-05T11:34:35.030Z,5.1
2022-12-05T11:35:35.023Z,5.1
2022-12-05T11:36:35.035Z,5.1
2022-12-05T11:37:35.039Z,5.1
2022-12-05T11:38:35.063Z,5.1
2022-12-05T11:39:35.049Z,5.1
2022-12-05T11:40:38.459Z,5.1
2022-12-05T11:41:35.028Z,5.1
2022-12-05T11:42:35.017Z,5.1
2022-12-05T11:43:35.026Z,5.2
2022-12-05T11:44:35.038Z,5.1
2022-12-05T11:45:35.030Z,5.1
2022-12-05T11:46:35.100Z,5.1
2022-12-05T11:47:35.088Z,5.1
2022-12-05T11:48:35.026Z,5.1
2022-12-05T11:49:35.024Z,5.1
2022-12-05T11:50:35.032Z,5.1
2022-12-05T11:51:35.113Z,5.1
2022-12-05T11:52:40.403Z,5.1
2022-12-05T11:53:35.025Z,5.1
2022-12-05T11:55:03.877Z,5.1
2022-12-05T11:55:35.037Z,5.1
2022-12-05T11:56:35.018Z,5.1
2022-12-05T11:57:35.034Z,5.1
2022-12-05T11:58:35.033Z,5.1
2022-12-05T11:59:35.037Z,5.1
2022-12-05T12:00:35.021Z,5.1
2022-12-05T12:01:35.160Z,5.1
2022-12-05T12:02:35.114Z,5.1
2022-12-05T12:03:35.149Z,5.1
2022-12-05T12:04:35.044Z,5.1
2022-12-05T12:05:35.029Z,5.1
2022-12-05T12:07:35.047Z,5.1
2022-12-05T12:08:35.016Z,5.1
2022-12-05T12:09:35.046Z,5.1
2022-12-05T12:10:35.069Z,5.1
2022-12-05T12:11:35.020Z,5.1
2022-12-05T12:12:35.016Z,5.1
2022-12-05T12:13:35.038Z,5.1
2022-12-05T12:14:35.045Z,5.1
2022-12-05T12:15:35.018Z,5.1
2022-12-05T12:16:35.039Z,5.1
2022-12-05T12:17:35.033Z,5.1
2022-12-05T12:18:35.029Z,5.1
2022-12-05T12:19:35.025Z,5.1
2022-12-05T12:20:35.069Z,5.1
2022-12-05T12:21:38.557Z,5.2
2022-12-05T12:22:35.029Z,5.2
2022-12-05T12:23:35.016Z,5.2
2022-12-05T12:24:35.041Z,5.2
2022-12-05T12:25:35.035Z,5.1
2022-12-05T12:26:35.012Z,5.2
2022-12-05T12:27:35.026Z,5.1
2022-12-05T12:28:35.044Z,5.1
2022-12-05T12:29:35.085Z,5.1
2022-12-05T12:30:35.042Z,5.1
2022-12-05T12:31:35.052Z,5.2
2022-12-05T12:32:35.057Z,5.2
2022-12-05T12:33:35.028Z,5.2
2022-12-05T12:34:35.032Z,5.2
2022-12-05T12:35:35.035Z,5.2
2022-12-05T12:36:35.025Z,5.2
2022-12-05T12:37:35.148Z,5.2
2022-12-05T12:38:35.124Z,5.2
2022-12-05T12:39:35.027Z,5.2
2022-12-05T12:40:35.063Z,5.2
2022-12-05T12:41:35.027Z,5.2
2022-12-05T12:42:35.014Z,5.2
2022-12-05T12:43:54.318Z,5.2
2022-12-05T12:44:35.017Z,5.2
2022-12-05T12:45:35.020Z,5.2
2022-12-05T12:46:35.113Z,5.2
2022-12-05T12:47:35.021Z,5.2
2022-12-05T12:48:35.017Z,5.2
2022-12-05T12:49:35.061Z,5.2
2022-12-05T12:50:40.268Z,5.2
2022-12-05T12:51:35.020Z,5.2
2022-12-05T12:52:35.017Z,5.2
2022-12-05T12:53:35.016Z,5.2
2022-12-05T12:55:02.138Z,5.2
2022-12-05T12:55:35.043Z,5.2
2022-12-05T12:56:35.015Z,5.2
2022-12-05T12:57:35.017Z,5.2
2022-12-05T12:58:35.048Z,5.2
2022-12-05T12:59:35.002Z,5.2
2022-12-05T13:00:35.106Z,5.2
2022-12-05T13:01:35.083Z,5.2
2022-12-05T13:02:35.158Z,5.2
2022-12-05T13:03:35.012Z,5.2
2022-12-05T13:04:35.028Z,5.2
2022-12-05T13:05:35.016Z,5.2
2022-12-05T13:06:35.014Z,5.2
2022-12-05T13:07:35.083Z,5.2
2022-12-05T13:08:35.021Z,5.2
2022-12-05T13:09:35.100Z,5.2
2022-12-05T13:10:35.162Z,5.2
2022-12-05T13:11:35.227Z,5.2
2022-12-05T13:12:35.111Z,5.2
2022-12-05T13:13:35.226Z,5.3
2022-12-05T13:14:35.401Z,5.2
2022-12-05T13:15:35.139Z,5.3
2022-12-05T13:16:35.076Z,5.3
2022-12-05T13:17:35.028Z,5.3
2022-12-05T13:18:35.029Z,5.3
2022-12-05T13:19:35.038Z,5.3
2022-12-05T13:20:35.004Z,5.3
2022-12-05T13:21:35.038Z,5.2
2022-12-05T13:22:35.015Z,5.3
2022-12-05T13:23:35.007Z,5.3
2022-12-05T13:24:35.047Z,5.3
2022-12-05T13:25:35.028Z,5.3
2022-12-05T13:26:34.997Z,5.3
2022-12-05T13:27:35.019Z,5.3
2022-12-05T13:28:35.013Z,5.3
2022-12-05T13:29:35.020Z,5.3
2022-12-05T13:30:35.003Z,5.3
2022-12-05T13:31:35.135Z,5.3
2022-12-05T13:32:35.019Z,5.3
2022-12-05T13:33:35.005Z,5.3
2022-12-05T13:34:35.023Z,5.3
2022-12-05T13:35:35.028Z,5.3
2022-12-05T13:36:35.098Z,5.3
2022-12-05T13:37:35.021Z,5.3
2022-12-05T13:38:35.023Z,5.3
2022-12-05T13:39:35.057Z,5.3
2022-12-05T13:40:35.014Z,5.3
2022-12-05T13:41:35.022Z,5.3
2022-12-05T13:42:35.053Z,5.3
2022-12-05T13:43:35.026Z,5.3
2022-12-05T13:44:35.070Z,5.3
2022-12-05T13:45:35.077Z,5.3
2022-12-05T13:46:35.026Z,5.3
2022-12-05T13:47:35.007Z,5.3
2022-12-05T13:48:35.007Z,5.3
2022-12-05T13:49:35.009Z,5.3
2022-12-05T13:50:35.028Z,5.3
2022-12-05T13:51:35.001Z,5.3
2022-12-05T13:52:35.084Z,5.3
2022-12-05T13:53:35.017Z,5.3